Danciger, Texas
Current Conditions -  °F | °C
As of 4:55 PM on Wednesday 22 Oct 2014 (Local Time) from KARM Reporting Station
Clear Clear  
Wind Chill: 82°   Ceiling: Unl
Heat Index: 82°   Visibility: 10mi
Dew Point: 55°   Wind: 7mph
Humidity: 39%   Direction: 40°NE
Pressure: 30.02"   Gusts: NA
Location:  29.17°N, 95.82°W
Report Text: KARM 222155Z AUTO 04006KT 10SM CLR 28/13 A3002 RMK AO2 T02790126
Loading
Personal Weather Stations






























Interactive Weather Map
Tropical Storm Tracking
New forecast layout! Learn more

10-Day Weather Forecast

Advertisements
Track Severe Weather on mobile